createdAt,value
2022-08-07T00:00:43.385Z,9.745960
2022-08-07T00:02:37.222Z,9.745960
2022-08-07T00:02:44.754Z,9.745234
2022-08-07T00:03:47.199Z,9.745017
2022-08-07T00:04:43.425Z,9.745403
2022-08-07T00:05:43.343Z,9.745590
2022-08-07T00:06:51.667Z,9.745653
2022-08-07T00:07:44.326Z,9.745831
2022-08-07T00:08:44.446Z,9.745681
2022-08-07T00:09:50.160Z,9.745282
2022-08-07T00:10:48.350Z,9.745353
2022-08-07T00:11:54.027Z,9.745588
2022-08-07T00:12:59.941Z,9.745687
2022-08-07T00:13:44.867Z,9.745687
2022-08-07T00:14:44.205Z,9.745687
2022-08-07T00:15:46.739Z,9.745687
2022-08-07T00:16:44.252Z,9.745687
2022-08-07T00:17:43.248Z,9.745687
2022-08-07T00:18:43.241Z,9.745687
2022-08-07T00:20:01.058Z,9.745687
2022-08-07T00:20:44.228Z,9.745687
2022-08-07T00:21:55.989Z,9.745893
2022-08-07T00:22:51.789Z,9.745893
2022-08-07T00:23:44.202Z,9.745893
2022-08-07T00:24:43.221Z,9.745893
2022-08-07T00:25:43.199Z,9.745893
2022-08-07T00:26:59.469Z,9.745893
2022-08-07T00:27:52.532Z,9.745893
2022-08-07T00:28:45.863Z,9.745893
2022-08-07T00:29:44.179Z,9.745893
2022-08-07T00:30:43.147Z,9.745893
2022-08-07T00:31:43.157Z,9.745893
2022-08-07T00:32:43.128Z,9.745587
2022-08-07T00:33:43.123Z,9.745570
2022-08-07T00:34:43.138Z,9.745545
2022-08-07T00:35:49.098Z,9.745473
2022-08-07T00:36:45.094Z,9.745644
2022-08-07T00:37:48.324Z,9.745717
2022-08-07T00:38:44.076Z,9.745696
2022-08-07T00:39:44.849Z,9.745555
2022-08-07T00:40:43.065Z,9.745584
2022-08-07T00:41:53.199Z,9.745644
2022-08-07T00:42:44.046Z,9.745914
2022-08-07T00:44:01.817Z,9.745560
2022-08-07T00:44:44.059Z,9.745752
2022-08-07T00:45:43.022Z,9.745564
2022-08-07T00:46:43.013Z,9.745469
2022-08-07T00:48:08.884Z,9.745442
2022-08-07T00:48:43.998Z,9.745442
2022-08-07T00:50:20.696Z,9.745351
2022-08-07T00:50:50.483Z,9.745580
2022-08-07T00:51:58.695Z,9.745687
2022-08-07T00:52:47.531Z,9.745542
2022-08-07T00:53:50.888Z,9.745549
2022-08-07T00:54:44.971Z,9.745503
2022-08-07T00:56:00.390Z,9.745448
2022-08-07T00:56:43.995Z,9.745534
2022-08-07T00:57:55.083Z,9.745517
2022-08-07T00:58:46.616Z,9.745302
2022-08-07T00:59:42.936Z,9.745290
2022-08-07T01:00:53.874Z,9.745448
2022-08-07T01:01:44.482Z,9.745266
2022-08-07T01:02:42.886Z,9.745623
2022-08-07T01:03:55.675Z,9.745428
2022-08-07T01:04:44.038Z,9.745392
2022-08-07T01:05:42.859Z,9.745354
2022-08-07T01:06:43.852Z,9.745412
2022-08-07T01:07:42.843Z,9.745561
2022-08-07T01:08:51.283Z,9.745444
2022-08-07T01:10:04.635Z,9.745468
2022-08-07T01:10:54.239Z,9.745618
2022-08-07T01:12:09.489Z,9.745615
2022-08-07T01:12:53.787Z,9.745591
2022-08-07T01:13:55.567Z,9.745536
2022-08-07T01:14:45.062Z,9.745371
2022-08-07T01:16:05.727Z,9.745360
2022-08-07T01:16:47.349Z,9.745367
2022-08-07T01:17:42.767Z,9.745511
2022-08-07T01:18:42.754Z,9.745481
2022-08-07T01:19:52.403Z,9.745469
2022-08-07T01:20:43.734Z,9.745354
2022-08-07T01:21:43.730Z,9.745424
2022-08-07T01:22:54.065Z,9.745332
2022-08-07T01:23:46.549Z,9.745335
2022-08-07T01:24:43.737Z,9.745455
2022-08-07T01:25:55.296Z,9.745307
2022-08-07T01:26:43.691Z,9.745338
2022-08-07T01:27:50.968Z,9.745398
2022-08-07T01:28:46.158Z,9.745429
2022-08-07T01:29:42.671Z,9.745391
2022-08-07T01:30:42.691Z,9.745417
2022-08-07T01:31:48.106Z,9.745362
2022-08-07T01:32:43.650Z,9.745267
2022-08-07T01:33:53.992Z,9.745312
2022-08-07T01:34:43.632Z,9.745299
2022-08-07T01:35:53.115Z,9.745550
2022-08-07T01:36:44.102Z,9.745430
2022-08-07T01:37:42.618Z,9.745447
2022-08-07T01:38:42.604Z,9.745615
2022-08-07T01:39:46.734Z,9.745483
2022-08-07T01:40:42.616Z,9.745545
2022-08-07T01:42:01.642Z,9.745528
2022-08-07T01:42:57.554Z,9.745625
2022-08-07T01:43:43.577Z,9.745725
2022-08-07T01:44:42.561Z,9.745632
2022-08-07T01:45:43.571Z,9.745604
2022-08-07T01:46:42.548Z,9.745650
2022-08-07T01:48:21.340Z,9.745400
2022-08-07T01:48:46.624Z,9.745473
2022-08-07T01:49:42.520Z,9.745592
2022-08-07T01:50:43.182Z,9.745433
2022-08-07T01:52:03.628Z,9.745493
2022-08-07T01:52:49.723Z,9.745562
2022-08-07T01:54:00.768Z,9.745491
2022-08-07T01:54:43.479Z,9.745612
2022-08-07T01:55:42.498Z,9.745657
2022-08-07T01:56:42.472Z,9.745617
2022-08-07T01:58:06.471Z,9.745625
2022-08-07T01:58:45.322Z,9.745562
2022-08-07T01:59:43.789Z,9.745487
2022-08-07T02:00:49.102Z,9.745457
2022-08-07T02:01:59.970Z,9.745446
2022-08-07T02:03:18.118Z,9.745574
2022-08-07T02:03:50.338Z,9.745452
2022-08-07T02:04:56.209Z,9.745484
2022-08-07T02:05:55.281Z,9.745629
2022-08-07T02:06:43.386Z,9.745677
2022-08-07T02:07:49.976Z,9.745751
2022-08-07T02:08:43.375Z,9.745726
2022-08-07T02:09:54.698Z,9.745507
2022-08-07T02:10:43.389Z,9.745429
2022-08-07T02:12:03.442Z,9.745240
2022-08-07T02:12:43.338Z,9.745520
2022-08-07T02:13:57.567Z,9.745803
2022-08-07T02:14:43.325Z,9.745408
2022-08-07T02:15:42.350Z,9.745225
2022-08-07T02:16:42.310Z,9.745337
2022-08-07T02:17:42.303Z,9.745505
2022-08-07T02:18:46.889Z,9.745691
2022-08-07T02:20:05.817Z,9.745487
2022-08-07T02:20:43.304Z,9.745442
2022-08-07T02:21:55.075Z,9.745363
2022-08-07T02:22:43.809Z,9.745561
2022-08-07T02:23:42.255Z,9.745685
2022-08-07T02:24:44.646Z,9.745513
2022-08-07T02:26:26.759Z,9.745347
2022-08-07T02:26:43.252Z,9.745450
2022-08-07T02:27:42.223Z,9.745348
2022-08-07T02:28:42.215Z,9.745156
2022-08-07T02:29:43.455Z,9.745333
2022-08-07T02:30:43.194Z,9.745258
2022-08-07T02:31:42.214Z,9.745236
2022-08-07T02:33:00.476Z,9.745405
2022-08-07T02:34:01.805Z,9.745614
2022-08-07T02:34:48.903Z,9.745639
2022-08-07T02:36:28.645Z,9.745363
2022-08-07T02:36:43.169Z,9.744924
2022-08-07T02:37:44.105Z,9.744718
2022-08-07T02:38:50.970Z,9.745244
2022-08-07T02:40:02.331Z,9.745667
2022-08-07T02:40:43.150Z,9.744830
2022-08-07T02:41:50.684Z,9.744944
2022-08-07T02:42:43.097Z,9.745329
2022-08-07T02:43:42.093Z,9.745216
2022-08-07T02:44:47.874Z,9.745323
2022-08-07T02:45:58.461Z,9.745431
2022-08-07T02:46:46.616Z,9.744900
2022-08-07T02:47:48.130Z,9.744809
2022-08-07T02:48:54.628Z,9.744734
2022-08-07T02:49:56.339Z,9.744636
2022-08-07T02:50:43.035Z,9.745466
2022-08-07T02:51:52.097Z,9.745515
2022-08-07T02:52:44.182Z,9.745807
2022-08-07T02:53:42.014Z,9.745781
2022-08-07T02:54:42.008Z,9.745727
2022-08-07T02:56:03.198Z,9.745283
2022-08-07T02:56:43.013Z,9.745194
2022-08-07T02:57:41.988Z,9.745417
2022-08-07T02:58:47.370Z,9.745238
2022-08-07T02:59:42.968Z,9.745305
2022-08-07T03:00:47.051Z,9.745300
2022-08-07T03:01:42.023Z,9.745252
2022-08-07T03:02:54.525Z,9.745392
2022-08-07T03:03:50.400Z,9.745592
2022-08-07T03:04:42.933Z,9.745495
2022-08-07T03:05:41.926Z,9.745639
2022-08-07T03:06:42.086Z,9.745607
2022-08-07T03:08:05.122Z,9.745577
2022-08-07T03:08:42.897Z,9.745423
2022-08-07T03:09:44.419Z,9.745426
2022-08-07T03:10:46.588Z,9.745516
2022-08-07T03:11:52.287Z,9.745707
2022-08-07T03:12:42.875Z,9.745407
2022-08-07T03:13:49.885Z,9.745316
2022-08-07T03:14:42.853Z,9.745129
2022-08-07T03:15:47.887Z,9.745146
2022-08-07T03:16:42.866Z,9.745477
2022-08-07T03:17:53.438Z,9.745674
2022-08-07T03:18:44.120Z,9.745449
2022-08-07T03:19:41.818Z,9.745393
2022-08-07T03:20:41.802Z,9.745487
2022-08-07T03:21:50.501Z,9.745151
2022-08-07T03:22:42.786Z,9.745131
2022-08-07T03:24:18.200Z,9.745194
2022-08-07T03:24:42.771Z,9.745110
2022-08-07T03:25:41.840Z,9.744944
2022-08-07T03:26:51.009Z,9.744816
2022-08-07T03:27:42.771Z,9.745238
2022-08-07T03:28:43.151Z,9.745386
2022-08-07T03:29:46.130Z,9.745387
2022-08-07T03:30:42.728Z,9.745477
2022-08-07T03:31:43.611Z,9.745290
2022-08-07T03:32:49.183Z,9.745343
2022-08-07T03:33:42.696Z,9.745225
2022-08-07T03:34:47.472Z,9.745222
2022-08-07T03:35:50.472Z,9.745088
2022-08-07T03:36:42.676Z,9.745139
2022-08-07T03:37:53.257Z,9.744892
2022-08-07T03:38:42.662Z,9.745087
2022-08-07T03:39:59.112Z,9.745255
2022-08-07T03:40:44.542Z,9.745841
2022-08-07T03:41:42.261Z,9.745652
2022-08-07T03:42:42.656Z,9.745519
2022-08-07T03:43:44.034Z,9.745572
2022-08-07T03:44:42.615Z,9.744781
2022-08-07T03:45:43.639Z,9.744893
2022-08-07T03:47:11.522Z,9.744747
2022-08-07T03:47:47.759Z,9.745070
2022-08-07T03:48:45.294Z,9.745315
2022-08-07T03:49:48.056Z,9.745131
2022-08-07T03:50:43.238Z,9.744653
2022-08-07T03:51:47.355Z,9.745261
2022-08-07T03:52:42.572Z,9.745650
2022-08-07T03:54:01.967Z,9.745427
2022-08-07T03:54:54.791Z,9.745767
2022-08-07T03:55:53.088Z,9.745600
2022-08-07T03:56:42.523Z,9.745486
2022-08-07T03:59:05.349Z,9.745576
2022-08-07T03:59:08.599Z,9.745590
2022-08-07T03:59:46.654Z,9.745600
2022-08-07T04:00:42.509Z,9.745410
2022-08-07T04:01:43.319Z,9.745537
2022-08-07T04:02:41.507Z,9.745362
2022-08-07T04:03:49.969Z,9.745615
2022-08-07T04:04:42.441Z,9.745511
2022-08-07T04:05:42.377Z,9.745542
2022-08-07T04:06:41.431Z,9.745395
2022-08-07T04:07:42.530Z,9.745227
2022-08-07T04:08:41.416Z,9.745274
2022-08-07T04:09:44.867Z,9.745485
2022-08-07T04:10:42.602Z,9.745500
2022-08-07T04:12:15.529Z,9.745569
2022-08-07T04:12:42.404Z,9.745578
2022-08-07T04:14:32.987Z,9.745484
2022-08-07T04:14:43.839Z,9.745333
2022-08-07T04:15:42.358Z,9.745187
2022-08-07T04:16:43.080Z,9.745140
2022-08-07T04:18:57.183Z,9.745562
2022-08-07T04:18:59.727Z,9.745653
2022-08-07T04:19:52.114Z,9.745742
2022-08-07T04:20:54.321Z,9.745692
2022-08-07T04:21:59.701Z,9.745770
2022-08-07T04:22:53.083Z,9.745498
2022-08-07T04:23:43.612Z,9.745408
2022-08-07T04:24:42.288Z,9.745330
2022-08-07T04:25:41.286Z,9.745831
2022-08-07T04:26:43.712Z,9.745810
2022-08-07T04:27:44.327Z,9.745708
2022-08-07T04:28:42.274Z,9.745477
2022-08-07T04:29:48.956Z,9.745582
2022-08-07T04:30:55.308Z,9.745748
2022-08-07T04:32:03.440Z,9.745634
2022-08-07T04:32:44.687Z,9.745096
2022-08-07T04:33:42.224Z,9.745337
2022-08-07T04:34:41.217Z,9.745297
2022-08-07T04:35:41.205Z,9.745176
2022-08-07T04:36:41.202Z,9.745047
2022-08-07T04:38:03.293Z,9.744975
2022-08-07T04:38:42.182Z,9.745265
2022-08-07T04:39:41.199Z,9.745429
2022-08-07T04:40:51.246Z,9.745185
2022-08-07T04:41:42.169Z,9.745258
2022-08-07T04:42:42.179Z,9.745451
2022-08-07T04:44:12.334Z,9.745502
2022-08-07T04:44:54.769Z,9.745589
2022-08-07T04:45:57.859Z,9.745295
2022-08-07T04:46:59.547Z,9.745223
2022-08-07T04:48:00.896Z,9.745307
2022-08-07T04:48:44.621Z,9.745144
2022-08-07T04:49:41.096Z,9.744897
2022-08-07T04:50:41.094Z,9.745485
2022-08-07T04:51:41.075Z,9.745335
2022-08-07T04:52:51.020Z,9.745488
2022-08-07T04:54:05.425Z,9.745522
2022-08-07T04:54:42.062Z,9.745453
2022-08-07T04:58:12.864Z,9.745299
2022-08-07T04:58:23.951Z,9.745409
2022-08-07T04:58:31.447Z,9.745377
2022-08-07T04:59:18.581Z,9.744971
2022-08-07T05:00:12.531Z,9.745252
2022-08-07T05:00:42.060Z,9.745436
2022-08-07T05:01:41.065Z,9.745425
2022-08-07T05:02:43.385Z,9.745434
2022-08-07T05:04:06.585Z,9.745401
2022-08-07T05:04:47.273Z,9.745246
2022-08-07T05:05:53.554Z,9.745280
2022-08-07T05:06:43.315Z,9.745346
2022-08-07T05:07:48.099Z,9.745494
2022-08-07T05:08:59.147Z,9.745537
2022-08-07T05:09:45.429Z,9.745501
2022-08-07T05:10:40.938Z,9.745625
2022-08-07T05:11:58.884Z,9.745583
2022-08-07T05:12:51.364Z,9.745593
2022-08-07T05:14:52.901Z,9.745517
2022-08-07T05:14:56.079Z,9.745345
2022-08-07T05:15:41.898Z,9.745339
2022-08-07T05:16:43.895Z,9.745108
2022-08-07T05:17:53.025Z,9.745283
2022-08-07T05:18:41.872Z,9.745455
2022-08-07T05:19:44.941Z,9.745479
2022-08-07T05:20:40.867Z,9.745914
2022-08-07T05:22:00.046Z,9.745784
2022-08-07T05:22:41.874Z,9.745627
2022-08-07T05:23:40.837Z,9.745663
2022-08-07T05:24:40.953Z,9.745480
2022-08-07T05:26:13.091Z,9.745662
2022-08-07T05:26:41.815Z,9.745717
2022-08-07T05:28:02.493Z,9.745341
2022-08-07T05:28:41.806Z,9.745117
2022-08-07T05:29:50.985Z,9.745532
2022-08-07T05:30:42.793Z,9.745553
2022-08-07T05:31:40.797Z,9.745624
2022-08-07T05:32:41.799Z,9.745713
2022-08-07T05:33:40.769Z,9.745830
2022-08-07T05:34:41.852Z,9.745598
2022-08-07T05:35:41.801Z,9.745820
2022-08-07T05:36:40.745Z,9.745768
2022-08-07T05:37:42.367Z,9.745728
2022-08-07T05:38:58.373Z,9.745966
2022-08-07T05:40:05.864Z,9.745792
2022-08-07T05:40:50.559Z,9.745600
2022-08-07T05:42:02.533Z,9.745729
2022-08-07T05:42:43.048Z,9.745545
2022-08-07T05:43:49.718Z,9.745690
2022-08-07T05:44:46.615Z,9.745756
2022-08-07T05:45:47.435Z,9.745997
2022-08-07T05:46:42.909Z,9.745949
2022-08-07T05:48:01.525Z,9.745565
2022-08-07T05:48:59.194Z,9.745904
2022-08-07T05:49:41.663Z,9.745730
2022-08-07T05:50:42.922Z,9.745971
2022-08-07T05:51:40.808Z,9.745818
2022-08-07T05:52:40.644Z,9.745643
2022-08-07T05:54:12.381Z,9.746035
2022-08-07T05:54:53.210Z,9.745829
2022-08-07T05:56:01.835Z,9.745856
2022-08-07T05:56:41.620Z,9.745668
2022-08-07T05:57:42.404Z,9.745849
2022-08-07T05:58:40.626Z,9.745986
2022-08-07T05:59:57.215Z,9.745890
2022-08-07T06:00:41.584Z,9.745964
2022-08-07T06:01:40.633Z,9.745393
2022-08-07T06:02:40.580Z,9.745455
2022-08-07T06:03:53.950Z,9.745388
2022-08-07T06:04:41.565Z,9.745544
2022-08-07T06:05:40.760Z,9.746125
2022-08-07T06:06:46.035Z,9.746352
2022-08-07T06:08:13.716Z,9.745870
2022-08-07T06:08:44.367Z,9.745718
2022-08-07T06:10:04.259Z,9.745378
2022-08-07T06:10:42.516Z,9.746157
2022-08-07T06:11:40.517Z,9.745817
2022-08-07T06:12:40.511Z,9.745867
2022-08-07T06:14:12.211Z,9.745734
2022-08-07T06:14:41.497Z,9.745734
2022-08-07T06:15:42.726Z,9.745734
2022-08-07T06:16:40.485Z,9.745321
2022-08-07T06:17:41.339Z,9.745346
2022-08-07T06:18:42.947Z,9.745446
2022-08-07T06:19:49.927Z,9.745311
2022-08-07T06:20:50.404Z,9.745555
2022-08-07T06:22:14.587Z,9.745818
2022-08-07T06:22:41.441Z,9.745559
2022-08-07T06:24:37.268Z,9.745356
2022-08-07T06:24:53.235Z,9.745692
2022-08-07T06:25:41.421Z,9.745687
2022-08-07T06:26:41.416Z,9.745515
2022-08-07T06:28:00.098Z,9.745465
2022-08-07T06:28:41.432Z,9.745507
2022-08-07T06:29:40.395Z,9.745506
2022-08-07T06:30:45.416Z,9.745375
2022-08-07T06:31:50.457Z,9.745311
2022-08-07T06:32:41.375Z,9.745267
2022-08-07T06:33:40.374Z,9.745306
2022-08-07T06:34:40.641Z,9.745538
2022-08-07T06:35:47.504Z,9.745564
2022-08-07T06:36:41.349Z,9.745524
2022-08-07T06:37:44.435Z,9.745476
2022-08-07T06:38:58.496Z,9.745502
2022-08-07T06:40:13.703Z,9.745427
2022-08-07T06:40:45.744Z,9.745354
2022-08-07T06:42:01.753Z,9.745563
2022-08-07T06:42:41.307Z,9.745597
2022-08-07T06:43:46.195Z,9.745531
2022-08-07T06:44:41.330Z,9.745491
2022-08-07T06:45:40.298Z,9.745470
2022-08-07T06:46:40.293Z,9.745460
2022-08-07T06:47:48.017Z,9.745277
2022-08-07T06:48:41.844Z,9.745385
2022-08-07T06:49:51.228Z,9.745166
2022-08-07T06:50:43.303Z,9.745335
2022-08-07T06:51:49.348Z,9.745536
2022-08-07T06:52:41.253Z,9.745494
2022-08-07T06:55:27.948Z,9.745439
2022-08-07T06:55:31.199Z,9.745427
2022-08-07T06:55:48.068Z,9.745231
2022-08-07T06:56:49.721Z,9.745401
2022-08-07T06:57:48.320Z,9.745440
2022-08-07T06:58:41.221Z,9.745468
2022-08-07T07:00:12.929Z,9.745315
2022-08-07T07:00:42.317Z,9.745016
2022-08-07T07:01:44.085Z,9.745063
2022-08-07T07:02:54.591Z,9.745206
2022-08-07T07:03:48.072Z,9.745082
2022-08-07T07:04:43.571Z,9.744829
2022-08-07T07:06:03.343Z,9.745139
2022-08-07T07:07:00.447Z,9.745338
2022-08-07T07:08:00.215Z,9.745376
2022-08-07T07:08:46.753Z,9.745198
2022-08-07T07:09:41.181Z,9.745137
2022-08-07T07:10:47.541Z,9.745308
2022-08-07T07:12:09.095Z,9.745449
2022-08-07T07:12:41.744Z,9.745556
2022-08-07T07:13:57.966Z,9.745861
2022-08-07T07:14:41.178Z,9.745884
2022-08-07T07:15:40.122Z,9.745670
2022-08-07T07:16:49.653Z,9.745501
2022-08-07T07:17:45.383Z,9.745448
2022-08-07T07:18:48.110Z,9.745466
2022-08-07T07:19:56.078Z,9.745494
2022-08-07T07:20:41.089Z,9.745233
2022-08-07T07:22:05.454Z,9.745397
2022-08-07T07:24:08.870Z,9.745521
2022-08-07T07:24:10.028Z,9.745458
2022-08-07T07:24:42.936Z,9.745469
2022-08-07T07:26:32.056Z,9.745426
2022-08-07T07:26:41.058Z,9.745299
2022-08-07T07:27:56.042Z,9.745336
2022-08-07T07:28:48.333Z,9.745479
2022-08-07T07:30:08.606Z,9.745436
2022-08-07T07:30:42.044Z,9.745304
2022-08-07T07:31:44.455Z,9.745273
2022-08-07T07:32:40.012Z,9.745303
2022-08-07T07:33:40.006Z,9.745384
2022-08-07T07:34:40.022Z,9.745403
2022-08-07T07:35:50.691Z,9.745403
2022-08-07T07:36:40.990Z,9.745375
2022-08-07T07:37:49.701Z,9.745391
2022-08-07T07:38:40.974Z,9.745503
2022-08-07T07:39:52.314Z,9.745546
2022-08-07T07:40:40.965Z,9.745559
2022-08-07T07:42:02.002Z,9.745494
2022-08-07T07:42:40.948Z,9.745532
2022-08-07T07:44:13.608Z,9.745440
2022-08-07T07:44:40.965Z,9.745592
2022-08-07T07:46:37.413Z,9.745420
2022-08-07T07:46:55.231Z,9.745377
2022-08-07T07:47:51.663Z,9.745371
2022-08-07T07:48:40.916Z,9.745463
2022-08-07T07:50:33.946Z,9.745452
2022-08-07T07:50:40.900Z,9.745384
2022-08-07T07:51:58.199Z,9.745358
2022-08-07T07:52:40.888Z,9.745441
2022-08-07T07:53:51.437Z,9.745405
2022-08-07T07:54:44.117Z,9.745415
2022-08-07T07:55:45.775Z,9.745497
2022-08-07T07:56:40.864Z,9.745557
2022-08-07T07:57:52.459Z,9.745387
2022-08-07T07:58:41.119Z,9.745428
2022-08-07T07:59:52.062Z,9.745479
2022-08-07T08:00:40.837Z,9.745400
2022-08-07T08:02:01.929Z,9.745415
2022-08-07T08:02:40.825Z,9.745393
2022-08-07T08:04:06.343Z,9.745400
2022-08-07T08:04:40.871Z,9.745502
2022-08-07T08:05:51.134Z,9.745541
2022-08-07T08:06:40.797Z,9.745499
2022-08-07T08:07:42.143Z,9.745347
2022-08-07T08:08:41.965Z,9.745411
2022-08-07T08:09:52.369Z,9.745463
2022-08-07T08:10:40.783Z,9.745256
2022-08-07T08:11:59.230Z,9.745370
2022-08-07T08:12:59.091Z,9.745196
2022-08-07T08:13:53.352Z,9.745324
2022-08-07T08:14:40.770Z,9.745359
2022-08-07T08:16:40.735Z,9.745251
2022-08-07T08:18:17.504Z,9.745388
2022-08-07T08:18:36.321Z,9.745363
2022-08-07T08:18:40.720Z,9.745409
2022-08-07T08:20:17.708Z,9.745473
2022-08-07T08:20:40.704Z,9.745396
2022-08-07T08:22:00.679Z,9.745395
2022-08-07T08:22:54.320Z,9.745317
2022-08-07T08:23:40.686Z,9.745355
2022-08-07T08:24:44.900Z,9.745499
2022-08-07T08:25:42.491Z,9.745627
2022-08-07T08:26:40.665Z,9.745658
2022-08-07T08:27:39.662Z,9.745356
2022-08-07T08:28:44.948Z,9.745284
2022-08-07T08:29:54.282Z,9.745037
2022-08-07T08:30:51.140Z,9.745420
2022-08-07T08:32:18.133Z,9.745399
2022-08-07T08:32:41.329Z,9.745718
2022-08-07T08:33:39.625Z,9.745708
2022-08-07T08:34:40.639Z,9.745702
2022-08-07T08:35:47.245Z,9.745699
2022-08-07T08:36:40.601Z,9.745587
2022-08-07T08:38:01.039Z,9.745643
2022-08-07T08:38:41.300Z,9.745703
2022-08-07T08:39:58.155Z,9.745634
2022-08-07T08:40:40.582Z,9.745597
2022-08-07T08:41:58.314Z,9.745481
2022-08-07T08:42:40.561Z,9.745426
2022-08-07T08:43:42.195Z,9.745366
2022-08-07T08:44:44.687Z,9.745346
2022-08-07T08:45:59.059Z,9.745397
2022-08-07T08:46:40.536Z,9.745423
2022-08-07T08:47:47.365Z,9.745447
2022-08-07T08:48:40.519Z,9.745657
2022-08-07T08:49:46.892Z,9.745626
2022-08-07T08:50:40.506Z,9.745564
2022-08-07T08:51:49.726Z,9.745569
2022-08-07T08:52:40.749Z,9.745491
2022-08-07T08:53:40.487Z,9.745522
2022-08-07T08:54:39.479Z,9.745560
2022-08-07T08:55:54.993Z,9.745597
2022-08-07T08:56:43.580Z,9.745538
2022-08-07T08:57:40.485Z,9.745461
2022-08-07T08:58:39.454Z,9.745502
2022-08-07T08:59:42.345Z,9.745346
2022-08-07T09:00:42.470Z,9.745543
2022-08-07T09:01:43.740Z,9.745443
2022-08-07T09:02:40.599Z,9.745453
2022-08-07T09:03:48.074Z,9.745409
2022-08-07T09:04:40.435Z,9.745321
2022-08-07T09:05:39.406Z,9.745469
2022-08-07T09:06:40.245Z,9.745559
2022-08-07T09:07:46.400Z,9.745651
2022-08-07T09:08:40.383Z,9.745470
2022-08-07T09:09:39.401Z,9.745450
2022-08-07T09:10:44.270Z,9.745571
2022-08-07T09:11:51.188Z,9.745375
2022-08-07T09:12:40.353Z,9.745546
2022-08-07T09:13:39.351Z,9.745589
2022-08-07T09:14:39.363Z,9.745749
2022-08-07T09:16:21.523Z,9.745539
2022-08-07T09:16:40.324Z,9.745536
2022-08-07T09:17:59.273Z,9.745399
2022-08-07T09:18:40.312Z,9.745545
2022-08-07T09:19:53.118Z,9.745521
2022-08-07T09:20:40.295Z,9.745416
2022-08-07T09:21:58.141Z,9.745533
2022-08-07T09:24:32.440Z,9.745533
2022-08-07T09:24:33.477Z,9.745520
2022-08-07T09:24:58.594Z,9.745418
2022-08-07T09:25:40.257Z,9.745505
2022-08-07T09:26:39.253Z,9.745563
2022-08-07T09:28:00.644Z,9.745528
2022-08-07T09:30:01.099Z,9.745780
2022-08-07T09:30:06.239Z,9.745769
2022-08-07T09:30:40.341Z,9.745645
2022-08-07T09:31:40.216Z,9.745465
2022-08-07T09:32:40.216Z,9.745457
2022-08-07T09:33:52.714Z,9.745610
2022-08-07T09:34:40.218Z,9.745818
2022-08-07T09:36:03.238Z,9.745669
2022-08-07T09:36:43.092Z,9.745674
2022-08-07T09:37:54.098Z,9.745494
2022-08-07T09:38:40.168Z,9.745388
2022-08-07T09:39:53.867Z,9.745501
2022-08-07T09:40:40.160Z,9.745561
2022-08-07T09:41:43.125Z,9.745598
2022-08-07T09:42:40.139Z,9.745584
2022-08-07T09:44:03.580Z,9.745441
2022-08-07T09:47:25.529Z,9.745467
2022-08-07T09:47:25.742Z,9.745426
2022-08-07T09:47:52.329Z,9.745472
2022-08-07T09:47:58.992Z,9.745473
2022-08-07T09:48:56.080Z,9.745477
2022-08-07T09:50:03.007Z,9.745545
2022-08-07T09:50:40.097Z,9.745579
2022-08-07T09:52:15.196Z,9.745568
2022-08-07T09:52:40.085Z,9.745614
2022-08-07T09:53:41.226Z,9.745726
2022-08-07T09:54:40.091Z,9.745446
2022-08-07T09:56:03.933Z,9.745411
2022-08-07T09:56:41.864Z,9.745456
2022-08-07T09:57:46.745Z,9.745535
2022-08-07T09:58:41.541Z,9.745628
2022-08-07T09:59:46.323Z,9.745711
2022-08-07T10:00:40.006Z,9.745735
2022-08-07T10:01:51.018Z,9.745652
2022-08-07T10:02:39.987Z,9.745472
2022-08-07T10:04:05.724Z,9.745499
2022-08-07T10:04:47.739Z,9.745674
2022-08-07T10:06:00.636Z,9.745771
2022-08-07T10:06:39.964Z,9.745767
2022-08-07T10:07:53.119Z,9.745614
2022-08-07T10:08:39.945Z,9.745598
2022-08-07T10:09:59.384Z,9.745460
2022-08-07T10:11:59.494Z,9.745465
2022-08-07T10:12:01.296Z,9.745677
2022-08-07T10:12:39.971Z,9.745551
2022-08-07T10:14:01.378Z,9.745565
2022-08-07T10:14:39.920Z,9.745436
2022-08-07T10:15:44.343Z,9.745500
2022-08-07T10:16:39.887Z,9.745564
2022-08-07T10:18:00.940Z,9.745455
2022-08-07T10:18:39.863Z,9.745625
2022-08-07T10:19:38.881Z,9.745630
2022-08-07T10:20:38.846Z,9.745488
2022-08-07T10:22:14.559Z,9.745583
2022-08-07T10:22:43.186Z,9.745702
2022-08-07T10:24:05.156Z,9.745675
2022-08-07T10:24:39.953Z,9.745712
2022-08-07T10:25:42.786Z,9.745758
2022-08-07T10:26:38.806Z,9.745415
2022-08-07T10:27:46.305Z,9.745393
2022-08-07T10:28:39.792Z,9.745377
2022-08-07T10:29:45.492Z,9.745317
2022-08-07T10:30:40.775Z,9.745758
2022-08-07T10:31:39.292Z,9.745665
2022-08-07T10:32:52.956Z,9.745518
2022-08-07T10:34:14.116Z,9.745507
2022-08-07T10:34:39.786Z,9.745607
2022-08-07T10:35:53.493Z,9.745509
2022-08-07T10:36:39.733Z,9.745532
2022-08-07T10:37:48.381Z,9.745525
2022-08-07T10:38:48.490Z,9.745688
2022-08-07T10:39:42.094Z,9.745610
2022-08-07T10:40:39.693Z,9.745692
2022-08-07T10:41:51.537Z,9.745614
2022-08-07T10:42:39.680Z,9.745559
2022-08-07T10:43:38.673Z,9.745522
2022-08-07T10:44:39.170Z,9.745672
2022-08-07T10:45:57.713Z,9.745587
2022-08-07T10:46:39.647Z,9.745399
2022-08-07T10:47:52.854Z,9.745590
2022-08-07T10:48:39.629Z,9.746154
2022-08-07T10:49:49.622Z,9.744409
2022-08-07T10:50:39.636Z,9.745702
2022-08-07T10:52:01.728Z,9.745494
2022-08-07T10:52:40.186Z,9.745633
2022-08-07T10:53:44.147Z,9.745659
2022-08-07T10:54:39.613Z,9.745555
2022-08-07T10:55:38.990Z,9.745661
2022-08-07T10:56:38.567Z,9.745226
2022-08-07T10:57:38.761Z,9.745522
2022-08-07T10:58:40.569Z,9.745699
2022-08-07T10:59:38.545Z,9.745573
2022-08-07T11:00:43.335Z,9.745592
2022-08-07T11:01:52.027Z,9.745449
2022-08-07T11:02:40.077Z,9.745645
2022-08-07T11:03:54.932Z,9.745745
2022-08-07T11:04:39.566Z,9.745069
2022-08-07T11:05:49.245Z,9.745431
2022-08-07T11:06:39.485Z,9.745644
2022-08-07T11:07:59.150Z,9.745891
2022-08-07T11:08:39.472Z,9.745912
2022-08-07T11:10:07.390Z,9.745164
2022-08-07T11:10:39.485Z,9.745251
2022-08-07T11:11:38.456Z,9.745484
2022-08-07T11:12:38.443Z,9.745354
2022-08-07T11:14:42.102Z,9.745113
2022-08-07T11:14:46.298Z,9.745905
2022-08-07T11:15:39.436Z,9.745928
2022-08-07T11:16:38.415Z,9.745654
2022-08-07T11:17:43.201Z,9.745440
2022-08-07T11:18:39.405Z,9.745514
2022-08-07T11:19:38.415Z,9.745709
2022-08-07T11:20:38.409Z,9.745744
2022-08-07T11:21:40.902Z,9.745756
2022-08-07T11:22:45.781Z,9.745694
2022-08-07T11:23:40.363Z,9.745382
2022-08-07T11:24:38.355Z,9.745591
2022-08-07T11:25:47.794Z,9.745094
2022-08-07T11:26:43.453Z,9.744327
2022-08-07T11:28:03.085Z,9.744142
2022-08-07T11:28:39.325Z,9.743777
2022-08-07T11:29:42.214Z,9.744947
2022-08-07T11:30:41.816Z,9.745218
2022-08-07T11:31:38.307Z,9.746024
2022-08-07T11:32:40.432Z,9.745769
2022-08-07T11:33:59.097Z,9.746205
2022-08-07T11:34:40.887Z,9.746093
2022-08-07T11:35:59.720Z,9.745992
2022-08-07T11:36:39.274Z,9.745584
2022-08-07T11:37:58.182Z,9.745941
2022-08-07T11:38:40.007Z,9.745662
2022-08-07T11:39:59.024Z,9.745662
2022-08-07T11:40:39.430Z,9.745572
2022-08-07T11:42:00.199Z,9.745292
2022-08-07T11:42:39.418Z,9.745292
2022-08-07T11:43:54.302Z,9.745568
2022-08-07T11:44:39.207Z,9.746235